ANX weather

Andøya Airport
Andenes, Nordland, Norway

Public forecast

Using degrees Celsius for public forecast. Weather courtesy of forecast.io.

Current aviation weather report (METAR) for Andøya Airport

Retrieved 2020/05/30 12:20 UTC (32 minutes ago):

ENAN 301220Z AUTO 19011KT 9999 OVC020/// 09/07 Q1033

Aviation forecast (TAF) for Andøya Airport

Retrieved 2020/05/30 12:58 UTC (0 seconds ago):

TAF ENAN 301100Z 3012/3112 22009KT 9999 FEW010 BKN018 TEMPO 3012/3014 BKN008 TEMPO 3014/3103 2500 BR BKN004